createdAt,value
2022-09-13T00:02:17.888Z,12.40
2022-09-13T00:04:45.736Z,12.48
2022-09-13T00:07:13.449Z,12.52
2022-09-13T00:09:41.164Z,12.58
2022-09-13T00:12:10.276Z,12.56
2022-09-13T00:14:38.048Z,12.53
2022-09-13T00:17:05.815Z,12.44
2022-09-13T00:19:33.913Z,12.56
2022-09-13T00:22:01.602Z,12.58
2022-09-13T00:24:29.324Z,12.61
2022-09-13T00:26:57.008Z,12.48
2022-09-13T00:29:26.084Z,12.56
2022-09-13T00:31:54.378Z,12.49
2022-09-13T00:34:22.229Z,12.49
2022-09-13T00:36:49.959Z,12.53
2022-09-13T00:39:17.655Z,12.45
2022-09-13T00:41:45.425Z,12.60
2022-09-13T00:44:46.745Z,12.49
2022-09-13T00:47:20.661Z,12.34
2022-09-13T00:49:51.409Z,12.42
2022-09-13T00:52:24.123Z,12.52
2022-09-13T00:54:56.877Z,12.57
2022-09-13T00:57:25.549Z,12.62
2022-09-13T00:59:59.615Z,12.60
2022-09-13T01:02:29.786Z,12.57
2022-09-13T01:04:57.709Z,12.62
2022-09-13T01:07:25.555Z,12.62
2022-09-13T01:09:54.304Z,12.65
2022-09-13T01:12:33.314Z,12.65
2022-09-13T01:15:05.138Z,12.57
2022-09-13T01:17:35.936Z,12.42
2022-09-13T01:20:07.687Z,12.21
2022-09-13T01:23:17.499Z,12.20
2022-09-13T01:26:18.427Z,12.30
2022-09-13T01:29:10.841Z,12.40
2022-09-13T01:31:48.972Z,12.52
2022-09-13T01:34:29.336Z,12.61
2022-09-13T01:37:15.743Z,12.61
2022-09-13T01:39:59.181Z,12.52
2022-09-13T01:42:35.387Z,12.48
2022-09-13T01:45:17.911Z,12.46
2022-09-13T01:47:54.646Z,12.57
2022-09-13T01:50:31.855Z,12.56
2022-09-13T01:53:06.375Z,12.61
2022-09-13T01:55:40.044Z,12.56
2022-09-13T01:58:18.105Z,12.62
2022-09-13T02:00:53.423Z,12.57
2022-09-13T02:03:29.579Z,12.71
2022-09-13T02:06:01.799Z,12.46
2022-09-13T02:08:38.792Z,12.49
2022-09-13T02:11:11.626Z,12.54
2022-09-13T02:13:44.046Z,12.46
2022-09-13T02:16:17.640Z,12.51
2022-09-13T02:18:51.896Z,12.63
2022-09-13T02:21:23.384Z,12.71
2022-09-13T02:23:55.504Z,12.72
2022-09-13T02:26:26.398Z,12.62
2022-09-13T02:28:56.852Z,12.63
2022-09-13T02:31:30.147Z,12.64
2022-09-13T02:34:04.275Z,12.59
2022-09-13T02:36:37.768Z,12.53
2022-09-13T02:39:10.325Z,12.48
2022-09-13T02:41:47.833Z,12.58
2022-09-13T02:44:20.740Z,12.71
2022-09-13T02:47:08.010Z,13.05
2022-09-13T02:49:51.575Z,13.12
2022-09-13T02:52:25.357Z,13.45
2022-09-13T02:54:57.661Z,13.66
2022-09-13T02:57:32.292Z,13.55
2022-09-13T03:00:00.999Z,13.48
2022-09-13T03:02:33.555Z,13.43
2022-09-13T03:05:03.006Z,13.46
2022-09-13T03:07:31.017Z,13.48
2022-09-13T03:10:04.919Z,13.45
2022-09-13T03:12:53.812Z,13.82
2022-09-13T03:15:30.401Z,13.56
2022-09-13T03:18:13.505Z,13.71
2022-09-13T03:20:54.047Z,13.88
2022-09-13T03:23:37.975Z,13.77
2022-09-13T03:26:25.739Z,13.55
2022-09-13T03:29:06.207Z,13.64
2022-09-13T03:31:37.399Z,13.86
2022-09-13T03:34:12.056Z,13.80
2022-09-13T03:36:46.912Z,13.88
2022-09-13T03:39:25.667Z,13.66
2022-09-13T03:41:57.859Z,13.54
2022-09-13T03:44:27.883Z,13.47
2022-09-13T03:46:58.839Z,13.43
2022-09-13T03:49:30.055Z,13.30
2022-09-13T03:52:00.427Z,13.22
2022-09-13T03:54:31.463Z,13.18
2022-09-13T03:57:08.506Z,13.09
2022-09-13T03:59:38.692Z,13.13
2022-09-13T04:02:11.749Z,13.38
2022-09-13T04:04:40.422Z,13.40
2022-09-13T04:07:11.304Z,13.37
2022-09-13T04:09:39.344Z,13.41
2022-09-13T04:12:08.331Z,13.02
2022-09-13T04:14:36.071Z,12.87
2022-09-13T04:17:03.806Z,12.81
2022-09-13T04:19:31.806Z,12.89
2022-09-13T04:21:59.660Z,12.90
2022-09-13T04:24:30.286Z,12.87
2022-09-13T04:26:58.256Z,12.85
2022-09-13T04:29:27.259Z,12.81
2022-09-13T04:31:56.235Z,12.82
2022-09-13T04:34:24.767Z,12.85
2022-09-13T04:36:54.654Z,12.98
2022-09-13T04:39:23.835Z,13.05
2022-09-13T04:41:54.864Z,13.12
2022-09-13T04:44:24.443Z,13.10
2022-09-13T04:46:52.315Z,13.11
2022-09-13T04:49:22.030Z,13.13
2022-09-13T04:51:50.872Z,13.22
2022-09-13T04:54:18.950Z,13.30
2022-09-13T04:56:47.436Z,13.32
2022-09-13T04:59:17.071Z,13.34
2022-09-13T05:01:44.859Z,13.24
2022-09-13T05:04:12.850Z,13.34
2022-09-13T05:06:40.605Z,13.24
2022-09-13T05:09:08.352Z,13.31
2022-09-13T05:11:36.061Z,13.46
2022-09-13T05:14:05.709Z,13.66
2022-09-13T05:16:34.993Z,13.98
2022-09-13T05:19:03.672Z,14.14
2022-09-13T05:21:31.938Z,14.35
2022-09-13T05:23:59.819Z,14.62
2022-09-13T05:26:31.302Z,14.82
2022-09-13T05:28:59.804Z,14.93
2022-09-13T05:31:31.316Z,14.95
2022-09-13T05:34:03.411Z,15.03
2022-09-13T05:36:31.167Z,15.03
2022-09-13T05:39:31.841Z,15.02
2022-09-13T05:41:48.160Z,15.10
2022-09-13T05:44:15.896Z,15.15
2022-09-13T05:46:44.127Z,15.14
2022-09-13T05:49:14.680Z,15.31
2022-09-13T05:51:42.491Z,15.32
2022-09-13T05:54:12.764Z,15.47
2022-09-13T05:56:41.137Z,15.72
2022-09-13T05:59:12.648Z,15.43
2022-09-13T06:01:40.395Z,15.77
2022-09-13T06:04:08.189Z,15.96
2022-09-13T06:06:37.202Z,15.92
2022-09-13T06:09:06.624Z,16.03
2022-09-13T06:11:34.399Z,16.02
2022-09-13T06:14:02.159Z,16.25
2022-09-13T06:16:29.883Z,16.68
2022-09-13T06:18:58.891Z,17.03
2022-09-13T06:21:29.102Z,16.94
2022-09-13T06:23:58.934Z,16.85
2022-09-13T06:26:28.867Z,17.08
2022-09-13T06:28:58.517Z,17.41
2022-09-13T06:31:28.351Z,17.71
2022-09-13T06:33:58.401Z,17.67
2022-09-13T06:36:26.449Z,17.55
2022-09-13T06:38:54.265Z,17.95
2022-09-13T06:41:26.297Z,17.55
2022-09-13T06:43:55.356Z,16.94
2022-09-13T06:46:25.310Z,17.22
2022-09-13T06:48:54.144Z,17.12
2022-09-13T06:51:23.945Z,17.57
2022-09-13T06:53:53.392Z,17.91
2022-09-13T06:56:24.334Z,18.20
2022-09-13T06:58:53.699Z,18.56
2022-09-13T07:01:23.675Z,20.04
2022-09-13T07:03:54.326Z,27.06
2022-09-13T07:06:24.159Z,27.42
2022-09-13T07:08:53.065Z,24.77
2022-09-13T07:11:22.589Z,23.37
2022-09-13T07:13:52.551Z,27.52
2022-09-13T07:16:21.907Z,31.75
2022-09-13T07:18:53.249Z,31.72
2022-09-13T07:21:22.218Z,25.38
2022-09-13T07:23:50.715Z,22.64
2022-09-13T07:26:18.593Z,24.54
2022-09-13T07:28:48.988Z,26.22
2022-09-13T07:31:20.692Z,27.62
2022-09-13T07:33:49.923Z,25.44
2022-09-13T07:36:17.677Z,25.12
2022-09-13T07:38:45.880Z,22.81
2022-09-13T07:41:15.816Z,20.78
2022-09-13T07:43:44.727Z,19.95
2022-09-13T07:46:14.359Z,20.27
2022-09-13T07:48:45.466Z,19.71
2022-09-13T07:51:15.079Z,20.15
2022-09-13T07:53:44.265Z,20.59
2022-09-13T07:56:13.605Z,23.41
2022-09-13T07:58:43.178Z,21.35
2022-09-13T08:01:15.355Z,20.89
2022-09-13T08:03:45.606Z,19.90
2022-09-13T08:06:13.340Z,19.03
2022-09-13T08:08:41.052Z,19.19
2022-09-13T08:11:08.813Z,19.74
2022-09-13T08:13:36.522Z,19.61
2022-09-13T08:16:05.903Z,19.93
2022-09-13T08:18:34.315Z,20.27
2022-09-13T08:21:03.482Z,20.08
2022-09-13T08:23:31.340Z,19.99
2022-09-13T08:26:02.636Z,19.90
2022-09-13T08:28:31.560Z,19.08
2022-09-13T08:31:29.522Z,19.09
2022-09-13T08:33:58.719Z,18.89
2022-09-13T08:36:28.832Z,19.23
2022-09-13T08:38:59.215Z,19.09
2022-09-13T08:41:56.866Z,18.77
2022-09-13T08:44:29.414Z,19.13
2022-09-13T08:47:05.132Z,18.92
2022-09-13T08:49:36.905Z,18.66
2022-09-13T08:52:22.986Z,18.62
2022-09-13T08:54:54.880Z,18.58
2022-09-13T08:57:33.162Z,19.28
2022-09-13T09:00:07.110Z,19.52
2022-09-13T09:02:59.095Z,19.73
2022-09-13T09:05:30.297Z,19.56
2022-09-13T09:08:03.917Z,19.65
2022-09-13T09:10:34.661Z,19.85
2022-09-13T09:13:07.502Z,20.07
2022-09-13T09:15:42.194Z,20.18
2022-09-13T09:18:15.256Z,20.09
2022-09-13T09:20:45.382Z,19.49
2022-09-13T09:23:21.438Z,19.52
2022-09-13T09:25:52.912Z,20.21
2022-09-13T09:28:20.918Z,20.61
2022-09-13T09:31:00.006Z,20.50
2022-09-13T09:34:09.470Z,19.96
2022-09-13T09:36:43.305Z,19.28
2022-09-13T09:39:16.279Z,19.45
2022-09-13T09:41:45.273Z,19.44
2022-09-13T09:44:20.226Z,19.65
2022-09-13T09:46:51.104Z,19.97
2022-09-13T09:49:41.286Z,20.43
2022-09-13T09:52:11.706Z,20.09
2022-09-13T09:54:41.714Z,20.03
2022-09-13T09:57:09.488Z,20.29
2022-09-13T09:59:37.290Z,20.11
2022-09-13T10:02:17.117Z,19.63
2022-09-13T10:04:56.095Z,19.84
2022-09-13T10:07:32.378Z,20.54
2022-09-13T10:10:04.775Z,20.22
2022-09-13T10:12:35.238Z,20.53
2022-09-13T10:15:15.447Z,19.50
2022-09-13T10:17:43.703Z,19.54
2022-09-13T10:20:26.717Z,20.06
2022-09-13T10:23:19.727Z,19.82
2022-09-13T10:25:58.694Z,19.96
2022-09-13T10:28:27.638Z,20.53
2022-09-13T10:30:59.822Z,20.86
2022-09-13T10:33:31.375Z,20.09
2022-09-13T10:36:02.202Z,20.34
2022-09-13T10:38:33.081Z,20.11
2022-09-13T10:41:05.580Z,20.50
2022-09-13T10:43:34.098Z,20.40
2022-09-13T10:46:05.726Z,21.04
2022-09-13T10:48:47.091Z,20.92
2022-09-13T10:51:31.053Z,21.40
2022-09-13T10:54:19.299Z,21.85
2022-09-13T10:56:49.377Z,22.27
2022-09-13T10:59:22.141Z,21.97
2022-09-13T11:02:09.713Z,22.50
2022-09-13T11:05:06.905Z,23.20
2022-09-13T11:07:50.169Z,23.30
2022-09-13T11:10:25.667Z,23.54
2022-09-13T11:13:04.553Z,23.48
2022-09-13T11:15:46.217Z,24.06
2022-09-13T11:18:41.101Z,23.21
2022-09-13T11:21:24.662Z,23.41
2022-09-13T11:24:09.758Z,24.46
2022-09-13T11:26:50.111Z,24.79
2022-09-13T11:29:31.047Z,25.30
2022-09-13T11:32:09.419Z,23.54
2022-09-13T11:34:51.317Z,24.51
2022-09-13T11:37:33.950Z,24.81
2022-09-13T11:40:30.684Z,24.52
2022-09-13T11:43:13.027Z,22.82
2022-09-13T11:45:48.223Z,23.29
2022-09-13T11:48:36.642Z,24.14
2022-09-13T11:51:17.105Z,23.94
2022-09-13T11:54:04.744Z,24.45
2022-09-13T11:56:37.283Z,24.57
2022-09-13T11:59:16.637Z,23.18
2022-09-13T12:01:50.259Z,23.58
2022-09-13T12:04:25.459Z,24.32
2022-09-13T12:06:58.762Z,24.33
2022-09-13T12:09:30.619Z,24.48
2022-09-13T12:12:06.132Z,23.43
2022-09-13T12:14:42.814Z,23.82
2022-09-13T12:17:24.041Z,24.13
2022-09-13T12:19:55.430Z,24.55
2022-09-13T12:22:30.238Z,24.92
2022-09-13T12:25:03.321Z,24.64
2022-09-13T12:27:40.221Z,24.34
2022-09-13T12:30:15.980Z,24.07
2022-09-13T12:32:47.182Z,23.69
2022-09-13T12:35:22.996Z,24.27
2022-09-13T12:38:08.774Z,24.65
2022-09-13T12:40:50.730Z,22.97
2022-09-13T12:43:35.512Z,23.55
2022-09-13T12:46:19.858Z,23.90
2022-09-13T12:49:12.288Z,24.04
2022-09-13T12:51:57.068Z,24.47
2022-09-13T12:54:53.725Z,24.63
2022-09-13T12:57:35.871Z,24.73
2022-09-13T13:00:13.463Z,25.09
2022-09-13T13:02:45.509Z,25.20
2022-09-13T13:05:28.753Z,25.20
2022-09-13T13:08:00.590Z,25.04
2022-09-13T13:10:32.166Z,25.63
2022-09-13T13:13:14.138Z,24.81
2022-09-13T13:15:57.829Z,24.24
2022-09-13T13:18:30.071Z,23.96
2022-09-13T13:21:31.950Z,23.46
2022-09-13T13:24:39.013Z,23.72
2022-09-13T13:27:37.528Z,23.98
2022-09-13T13:30:41.139Z,24.50
2022-09-13T13:33:19.705Z,23.78
2022-09-13T13:35:47.970Z,24.11
2022-09-13T13:38:34.554Z,24.66
2022-09-13T13:41:12.704Z,25.00
2022-09-13T13:43:40.833Z,24.85
2022-09-13T13:46:31.184Z,23.68
2022-09-13T13:49:32.077Z,24.51
2022-09-13T13:52:37.126Z,23.87
2022-09-13T13:55:33.521Z,23.51
2022-09-13T13:58:04.048Z,24.15
2022-09-13T14:00:34.541Z,24.19
2022-09-13T14:03:15.289Z,24.27
2022-09-13T14:05:49.976Z,24.06
2022-09-13T14:08:35.543Z,24.79
2022-09-13T14:11:17.010Z,24.50
2022-09-13T14:14:01.153Z,24.75
2022-09-13T14:16:52.215Z,24.45
2022-09-13T14:19:25.252Z,24.95
2022-09-13T14:22:15.311Z,25.21
2022-09-13T14:24:46.343Z,25.86
2022-09-13T14:27:21.794Z,25.73
2022-09-13T14:29:52.011Z,26.44
2022-09-13T14:32:23.094Z,25.97
2022-09-13T14:34:59.477Z,25.65
2022-09-13T14:37:30.999Z,25.87
2022-09-13T14:40:01.553Z,25.63
2022-09-13T14:42:41.268Z,25.11
2022-09-13T14:45:14.242Z,24.47
2022-09-13T14:47:51.797Z,24.00
2022-09-13T14:50:23.662Z,23.83
2022-09-13T14:52:55.384Z,23.69
2022-09-13T14:55:27.510Z,24.04
2022-09-13T14:58:01.832Z,23.79
2022-09-13T15:00:30.576Z,24.00
2022-09-13T15:03:02.756Z,23.84
2022-09-13T15:05:34.309Z,23.93
2022-09-13T15:08:25.353Z,23.86
2022-09-13T15:10:53.654Z,23.55
2022-09-13T15:13:22.988Z,23.99
2022-09-13T15:15:51.249Z,23.82
2022-09-13T15:18:36.458Z,23.56
2022-09-13T15:21:06.446Z,23.52
2022-09-13T15:23:36.400Z,23.73
2022-09-13T15:26:07.821Z,23.91
2022-09-13T15:28:51.101Z,23.88
2022-09-13T15:31:23.872Z,23.86
2022-09-13T15:34:13.962Z,23.69
2022-09-13T15:36:42.329Z,23.42
2022-09-13T15:39:17.988Z,23.20
2022-09-13T15:41:53.711Z,23.32
2022-09-13T15:44:23.391Z,23.28
2022-09-13T15:46:53.931Z,23.29
2022-09-13T15:49:24.733Z,23.06
2022-09-13T15:51:55.643Z,22.96
2022-09-13T15:54:23.755Z,22.83
2022-09-13T15:56:52.503Z,22.68
2022-09-13T15:59:23.236Z,23.01
2022-09-13T16:01:52.953Z,22.90
2022-09-13T16:04:21.001Z,22.98
2022-09-13T16:06:49.023Z,22.57
2022-09-13T16:09:19.468Z,22.56
2022-09-13T16:11:48.060Z,22.88
2022-09-13T16:14:17.827Z,22.87
2022-09-13T16:16:49.099Z,22.71
2022-09-13T16:19:18.695Z,22.81
2022-09-13T16:21:46.652Z,22.74
2022-09-13T16:24:14.916Z,22.93
2022-09-13T16:26:43.311Z,22.99
2022-09-13T16:29:11.910Z,22.90
2022-09-13T16:31:41.095Z,22.79
2022-09-13T16:34:10.747Z,22.63
2022-09-13T16:36:38.925Z,22.63
2022-09-13T16:39:06.786Z,22.58
2022-09-13T16:41:34.565Z,22.48
2022-09-13T16:44:05.079Z,22.58
2022-09-13T16:46:36.466Z,22.44
2022-09-13T16:49:04.928Z,22.26
2022-09-13T16:51:34.234Z,22.18
2022-09-13T16:54:02.816Z,22.35
2022-09-13T16:56:31.275Z,22.43
2022-09-13T16:58:59.243Z,22.29
2022-09-13T17:01:28.842Z,22.15
2022-09-13T17:03:57.270Z,22.10
2022-09-13T17:06:26.659Z,22.36
2022-09-13T17:08:58.807Z,22.37
2022-09-13T17:11:28.128Z,22.26
2022-09-13T17:13:56.679Z,22.04
2022-09-13T17:16:28.016Z,21.87
2022-09-13T17:18:57.241Z,21.90
2022-09-13T17:21:25.559Z,21.90
2022-09-13T17:23:55.196Z,21.87
2022-09-13T17:26:23.546Z,21.62
2022-09-13T17:28:52.607Z,21.58
2022-09-13T17:31:22.134Z,21.64
2022-09-13T17:33:50.064Z,21.56
2022-09-13T17:36:18.225Z,21.78
2022-09-13T17:38:46.323Z,21.84
2022-09-13T17:41:16.989Z,21.81
2022-09-13T17:43:45.792Z,21.73
2022-09-13T17:46:15.550Z,21.83
2022-09-13T17:48:43.483Z,21.79
2022-09-13T17:51:13.368Z,21.83
2022-09-13T17:53:43.855Z,21.79
2022-09-13T17:56:11.592Z,21.61
2022-09-13T17:58:40.626Z,21.53
2022-09-13T18:01:09.999Z,21.27
2022-09-13T18:03:39.120Z,21.07
2022-09-13T18:06:09.030Z,20.88
2022-09-13T18:08:38.908Z,20.69
2022-09-13T18:11:15.493Z,20.76
2022-09-13T18:13:47.914Z,20.59
2022-09-13T18:16:21.253Z,20.32
2022-09-13T18:18:50.561Z,20.13
2022-09-13T18:21:19.715Z,20.04
2022-09-13T18:23:48.970Z,19.95
2022-09-13T18:26:18.525Z,19.86
2022-09-13T18:28:54.704Z,19.80
2022-09-13T18:31:24.038Z,19.60
2022-09-13T18:33:55.951Z,19.50
2022-09-13T18:36:24.068Z,19.43
2022-09-13T18:38:53.168Z,19.31
2022-09-13T18:41:22.476Z,19.11
2022-09-13T18:43:55.677Z,19.16
2022-09-13T18:46:26.979Z,19.05
2022-09-13T18:48:57.535Z,18.97
2022-09-13T18:51:27.446Z,18.90
2022-09-13T18:53:55.721Z,18.76
2022-09-13T18:56:26.006Z,18.77
2022-09-13T18:58:56.453Z,18.81
2022-09-13T19:01:26.652Z,18.76
2022-09-13T19:03:56.197Z,18.73
2022-09-13T19:06:26.634Z,18.56
2022-09-13T19:08:55.856Z,18.58
2022-09-13T19:11:45.153Z,18.49
2022-09-13T19:14:15.982Z,18.42
2022-09-13T19:16:44.857Z,18.32
2022-09-13T19:19:12.907Z,18.18
2022-09-13T19:21:41.097Z,18.13
2022-09-13T19:24:16.191Z,18.18
2022-09-13T19:26:45.970Z,17.97
2022-09-13T19:29:19.774Z,17.70
2022-09-13T19:31:49.610Z,17.65
2022-09-13T19:34:18.875Z,17.64
2022-09-13T19:36:49.578Z,17.67
2022-09-13T19:39:17.893Z,17.61
2022-09-13T19:41:45.689Z,17.66
2022-09-13T19:44:15.044Z,17.42
2022-09-13T19:46:47.215Z,17.40
2022-09-13T19:49:18.056Z,17.40
2022-09-13T19:51:51.517Z,17.41
2022-09-13T19:54:20.576Z,17.31
2022-09-13T19:56:48.330Z,17.32
2022-09-13T19:59:19.691Z,17.34
2022-09-13T20:01:49.316Z,17.46
2022-09-13T20:04:19.955Z,17.41
2022-09-13T20:07:12.162Z,17.31
2022-09-13T20:09:42.055Z,16.89
2022-09-13T20:12:11.378Z,16.87
2022-09-13T20:14:39.217Z,16.90
2022-09-13T20:17:08.853Z,16.91
2022-09-13T20:19:45.066Z,16.79
2022-09-13T20:22:16.922Z,17.08
2022-09-13T20:24:44.727Z,17.20
2022-09-13T20:27:12.442Z,17.27
2022-09-13T20:29:40.385Z,17.29
2022-09-13T20:32:11.023Z,17.42
2022-09-13T20:34:39.941Z,17.47
2022-09-13T20:37:07.653Z,17.54
2022-09-13T20:39:35.732Z,17.53
2022-09-13T20:42:03.567Z,17.32
2022-09-13T20:44:31.295Z,17.24
2022-09-13T20:46:59.015Z,17.21
2022-09-13T20:49:29.249Z,17.24
2022-09-13T20:51:57.136Z,17.26
2022-09-13T20:54:25.862Z,17.16
2022-09-13T20:56:53.615Z,17.17
2022-09-13T20:59:22.674Z,17.26
2022-09-13T21:01:50.828Z,17.10
2022-09-13T21:04:18.628Z,17.27
2022-09-13T21:07:05.496Z,17.30
2022-09-13T21:09:33.484Z,17.35
2022-09-13T21:12:02.375Z,17.32
2022-09-13T21:14:33.961Z,17.28
2022-09-13T21:17:06.263Z,17.25
2022-09-13T21:19:34.117Z,17.26
2022-09-13T21:22:04.093Z,17.27
2022-09-13T21:24:32.174Z,17.11
2022-09-13T21:26:59.915Z,16.86
2022-09-13T21:29:27.636Z,16.93
2022-09-13T21:31:55.894Z,16.82
2022-09-13T21:34:25.068Z,16.80
2022-09-13T21:36:52.773Z,16.89
2022-09-13T21:39:21.830Z,16.94
2022-09-13T21:41:49.888Z,16.82
2022-09-13T21:44:17.847Z,16.95
2022-09-13T21:46:46.705Z,16.89
2022-09-13T21:49:15.858Z,16.66
2022-09-13T21:51:45.481Z,16.78
2022-09-13T21:54:16.466Z,16.81
2022-09-13T21:56:50.293Z,16.88
2022-09-13T21:59:20.171Z,16.81
2022-09-13T22:01:50.405Z,16.84
2022-09-13T22:04:22.055Z,16.82
2022-09-13T22:06:52.235Z,16.86
2022-09-13T22:09:21.207Z,16.79
2022-09-13T22:11:50.556Z,16.76
2022-09-13T22:14:22.351Z,16.81
2022-09-13T22:16:52.530Z,16.83
2022-09-13T22:19:23.460Z,16.86
2022-09-13T22:21:54.111Z,17.02
2022-09-13T22:24:24.031Z,17.06
2022-09-13T22:26:55.349Z,17.08
2022-09-13T22:29:23.596Z,16.96
2022-09-13T22:31:52.727Z,16.96
2022-09-13T22:34:22.143Z,17.00
2022-09-13T22:36:50.215Z,17.11
2022-09-13T22:39:18.335Z,17.01
2022-09-13T22:41:46.459Z,17.05
2022-09-13T22:44:15.748Z,17.02
2022-09-13T22:46:44.994Z,17.13
2022-09-13T22:49:14.093Z,17.31
2022-09-13T22:51:41.895Z,17.35
2022-09-13T22:54:09.686Z,17.31
2022-09-13T22:56:37.877Z,17.38
2022-09-13T22:59:08.132Z,17.43
2022-09-13T23:01:37.940Z,17.45
2022-09-13T23:04:06.785Z,17.49
2022-09-13T23:06:35.646Z,17.46
2022-09-13T23:09:06.510Z,17.42
2022-09-13T23:11:36.588Z,17.36
2022-09-13T23:14:07.017Z,17.37
2022-09-13T23:16:38.674Z,17.30
2022-09-13T23:19:06.865Z,17.22
2022-09-13T23:21:36.969Z,17.22
2022-09-13T23:24:06.713Z,17.26
2022-09-13T23:26:35.239Z,17.35
2022-09-13T23:29:04.831Z,17.56
2022-09-13T23:31:35.062Z,17.61
2022-09-13T23:34:07.373Z,17.83
2022-09-13T23:36:38.117Z,18.01
2022-09-13T23:39:07.932Z,17.97
2022-09-13T23:41:36.082Z,17.76
2022-09-13T23:44:05.031Z,17.74
2022-09-13T23:46:32.849Z,17.69
2022-09-13T23:49:00.567Z,17.66
2022-09-13T23:51:29.829Z,17.53
2022-09-13T23:54:00.581Z,17.34
2022-09-13T23:56:29.939Z,17.29
2022-09-13T23:58:58.823Z,17.15
